Terminal Aerodrome Forecast
Issued by NWS Austin/San Antonio, TX

Home | Current Version | Previous Version | Text Only | Print | Product List | Glossary On
Versions: 1 2 3 4 5 6 7 8 9 10 11 12 13 14 15 16
000
FTUS44 KEWX 042320
TAFSAT
TAF
KSAT 042320Z 0500/0606 15010KT P6SM VCSH SCT070 BKN120
     FM050100 15010KT P6SM SCT070
     FM050600 17005KT P6SM SCT010 SCT150
     FM050900 17005KT P6SM BKN010
     FM051700 16010G20KT P6SM SCT040
     FM060000 14012KT P6SM SCT050 SCT150=

USA.gov is the U.S. government's official web portal to all federal, state and local government web resources and services.